YON495 LFBO-KBOS
Flight info
| Callsign | YON495 |
|---|---|
| Flight time | N/A |
| Altitude | 38000 |
| Route | LACO7A LACOU DCT CHALA DCT CNA DCT GALOF DCT NOVAN DCT TULTA DCT GUNSO DCT SOMAX DCT 51N020W 51N030W 51N040W 50N050W DCT ELSIR N402C ALLEX DCT AJJAY OOSHN5 |
| Aircraft | A319/M-SDE3FGHIRWY/LB1 |
Departure
| Time | 2026-05-03 22:25 |
|---|---|
| Airport | Toulouse-Blagnac Airport (LFBO) |
Arrival
| Time | N/A |
|---|---|
| Airport | Boston Logan International Airport (KBOS) |
| Time | Latitude | Longitude | Altitude | Speed | Heading |
|---|---|---|---|---|---|
| 2026-05-03 21:49 | 43.61845 | 1.36174 | 489 ft | 0 kts | 274° |
| 2026-05-03 22:15 | 43.61845 | 1.36175 | 494 ft | 2 kts | 274° |
| 2026-05-03 22:15 | 43.61842 | 1.36208 | 492 ft | 4 kts | 290° |
| 2026-05-03 22:15 | 43.61829 | 1.36237 | 489 ft | 4 kts | 332° |
| 2026-05-03 22:15 | 43.61814 | 1.36243 | 486 ft | 1 kts | 3° |
| 2026-05-03 22:16 | 43.61811 | 1.36243 | 486 ft | 0 kts | 3° |
| 2026-05-03 22:19 | 43.61822 | 1.36244 | 494 ft | 3 kts | 3° |
| 2026-05-03 22:19 | 43.61862 | 1.36247 | 489 ft | 8 kts | 3° |
| 2026-05-03 22:19 | 43.61920 | 1.36250 | 494 ft | 9 kts | 2° |
| 2026-05-03 22:19 | 43.61990 | 1.36254 | 494 ft | 11 kts | 2° |
| 2026-05-03 22:20 | 43.62070 | 1.36258 | 494 ft | 12 kts | 2° |
| 2026-05-03 22:20 | 43.62157 | 1.36286 | 487 ft | 14 kts | 40° |
| 2026-05-03 22:20 | 43.62175 | 1.36412 | 494 ft | 14 kts | 92° |
| 2026-05-03 22:20 | 43.62182 | 1.36546 | 494 ft | 14 kts | 56° |
| 2026-05-03 22:21 | 43.62261 | 1.36520 | 490 ft | 13 kts | 322° |
| 2026-05-03 22:21 | 43.62339 | 1.36437 | 490 ft | 15 kts | 323° |
| 2026-05-03 22:21 | 43.62426 | 1.36347 | 494 ft | 16 kts | 323° |
| 2026-05-03 22:21 | 43.62520 | 1.36249 | 491 ft | 18 kts | 323° |
| 2026-05-03 22:22 | 43.62621 | 1.36143 | 494 ft | 19 kts | 323° |
| 2026-05-03 22:22 | 43.62731 | 1.36030 | 491 ft | 20 kts | 323° |
| 2026-05-03 22:22 | 43.62847 | 1.35909 | 492 ft | 21 kts | 323° |
| 2026-05-03 22:22 | 43.62968 | 1.35783 | 491 ft | 23 kts | 323° |
| 2026-05-03 22:23 | 43.63096 | 1.35650 | 492 ft | 23 kts | 323° |
| 2026-05-03 22:23 | 43.63229 | 1.35512 | 495 ft | 24 kts | 323° |
| 2026-05-03 22:23 | 43.63367 | 1.35367 | 493 ft | 25 kts | 323° |
| 2026-05-03 22:23 | 43.63483 | 1.35326 | 492 ft | 17 kts | 40° |
| 2026-05-03 22:24 | 43.63559 | 1.35461 | 491 ft | 18 kts | 53° |
| 2026-05-03 22:24 | 43.63635 | 1.35603 | 492 ft | 18 kts | 53° |
| 2026-05-03 22:24 | 43.63710 | 1.35739 | 490 ft | 13 kts | 52° |
| 2026-05-03 22:24 | 43.63695 | 1.35807 | 490 ft | 0 kts | 141° |
| 2026-05-03 22:25 | 43.63670 | 1.35834 | 492 ft | 26 kts | 142° |
| 2026-05-03 22:25 | 43.63269 | 1.36251 | 493 ft | 115 kts | 143° |
| 2026-05-03 22:25 | 43.62486 | 1.37070 | 847 ft | 147 kts | 141° |
| 2026-05-03 22:25 | 43.61683 | 1.37924 | 1758 ft | 147 kts | 140° |
| 2026-05-03 22:26 | 43.60874 | 1.38800 | 2451 ft | 154 kts | 142° |
| 2026-05-03 22:26 | 43.59939 | 1.39718 | 2847 ft | 176 kts | 146° |
| 2026-05-03 22:26 | 43.58857 | 1.40730 | 3232 ft | 200 kts | 148° |
| 2026-05-03 22:26 | 43.57631 | 1.41869 | 3654 ft | 225 kts | 147° |
| 2026-05-03 22:27 | 43.56266 | 1.43148 | 4158 ft | 249 kts | 151° |
| 2026-05-03 22:27 | 43.54595 | 1.43868 | 4945 ft | 257 kts | 177° |
| 2026-05-03 22:27 | 43.52820 | 1.43522 | 5885 ft | 261 kts | 202° |
| 2026-05-03 22:27 | 43.51302 | 1.42126 | 6860 ft | 266 kts | 227° |
| 2026-05-03 22:28 | 43.50374 | 1.39914 | 7825 ft | 272 kts | 252° |
| 2026-05-03 22:28 | 43.50263 | 1.37296 | 8796 ft | 281 kts | 278° |
| 2026-05-03 22:28 | 43.51063 | 1.34815 | 9722 ft | 291 kts | 307° |
| 2026-05-03 22:28 | 43.52682 | 1.33103 | 10560 ft | 301 kts | 335° |
| 2026-05-03 22:29 | 43.54768 | 1.32531 | 11380 ft | 310 kts | 353° |
| 2026-05-03 22:29 | 43.56923 | 1.32273 | 12270 ft | 312 kts | 353° |
| 2026-05-03 22:29 | 43.59105 | 1.32029 | 13140 ft | 316 kts | 353° |
| 2026-05-03 22:29 | 43.61306 | 1.31783 | 13950 ft | 320 kts | 353° |
| 2026-05-03 22:30 | 43.63512 | 1.31530 | 14692 ft | 324 kts | 353° |
| 2026-05-03 22:30 | 43.65773 | 1.31262 | 15425 ft | 328 kts | 353° |
| 2026-05-03 22:30 | 43.68041 | 1.30817 | 16120 ft | 331 kts | 342° |
| 2026-05-03 22:30 | 43.70225 | 1.29648 | 16447 ft | 347 kts | 332° |
| 2026-05-03 22:31 | 43.72480 | 1.28176 | 16597 ft | 369 kts | 332° |
| 2026-05-03 22:31 | 43.74867 | 1.26593 | 16745 ft | 391 kts | 332° |
| 2026-05-03 22:31 | 43.77365 | 1.24933 | 17136 ft | 402 kts | 332° |
| 2026-05-03 22:31 | 43.79914 | 1.23254 | 17742 ft | 408 kts | 332° |
| 2026-05-03 22:32 | 43.82500 | 1.21561 | 18361 ft | 414 kts | 332° |
| 2026-05-03 22:32 | 43.85128 | 1.19844 | 18885 ft | 419 kts | 332° |
| 2026-05-03 22:32 | 43.87755 | 1.18126 | 19436 ft | 424 kts | 332° |
| 2026-05-03 22:32 | 43.90432 | 1.16374 | 20001 ft | 427 kts | 332° |
| 2026-05-03 22:33 | 43.93129 | 1.14608 | 20560 ft | 431 kts | 332° |
| 2026-05-03 22:33 | 43.95855 | 1.12821 | 21122 ft | 434 kts | 330° |
| 2026-05-03 22:33 | 43.98593 | 1.11020 | 21658 ft | 437 kts | 330° |
| 2026-05-03 22:33 | 44.01362 | 1.09197 | 22173 ft | 441 kts | 330° |
| 2026-05-03 22:34 | 44.04150 | 1.07358 | 22689 ft | 444 kts | 329° |
| 2026-05-03 22:34 | 44.06952 | 1.05507 | 23183 ft | 448 kts | 329° |
| 2026-05-03 22:34 | 44.09780 | 1.03632 | 23640 ft | 451 kts | 329° |
| 2026-05-03 22:34 | 44.12624 | 1.01748 | 24040 ft | 455 kts | 329° |
| 2026-05-03 22:35 | 44.15489 | 0.99854 | 24467 ft | 457 kts | 329° |
| 2026-05-03 22:35 | 44.18371 | 0.97947 | 24888 ft | 459 kts | 329° |
| 2026-05-03 22:35 | 44.21266 | 0.96028 | 25304 ft | 461 kts | 329° |
| 2026-05-03 22:35 | 44.24135 | 0.94122 | 25703 ft | 464 kts | 329° |
| 2026-05-03 22:36 | 44.27066 | 0.92173 | 26070 ft | 467 kts | 329° |
| 2026-05-03 22:36 | 44.30016 | 0.90209 | 26441 ft | 470 kts | 329° |
| 2026-05-03 22:36 | 44.32964 | 0.88189 | 26832 ft | 472 kts | 328° |
| 2026-05-03 22:36 | 44.35899 | 0.86103 | 27211 ft | 473 kts | 327° |
| 2026-05-03 22:37 | 44.38825 | 0.83973 | 27562 ft | 475 kts | 327° |
| 2026-05-03 22:37 | 44.41725 | 0.81841 | 27917 ft | 477 kts | 327° |
| 2026-05-03 22:37 | 44.44674 | 0.79674 | 28282 ft | 480 kts | 327° |
| 2026-05-03 22:37 | 44.47639 | 0.77514 | 28621 ft | 482 kts | 327° |
| 2026-05-03 22:38 | 44.50625 | 0.75355 | 28974 ft | 484 kts | 327° |
| 2026-05-03 22:38 | 44.53633 | 0.73190 | 29298 ft | 486 kts | 327° |
| 2026-05-03 22:38 | 44.56657 | 0.71013 | 29626 ft | 488 kts | 327° |
| 2026-05-03 22:38 | 44.59685 | 0.68832 | 30065 ft | 487 kts | 327° |
| 2026-05-03 22:39 | 44.62698 | 0.66659 | 30481 ft | 486 kts | 327° |
| 2026-05-03 22:39 | 44.65698 | 0.64490 | 30888 ft | 484 kts | 327° |
| 2026-05-03 22:39 | 44.68656 | 0.62346 | 31273 ft | 483 kts | 327° |
| 2026-05-03 22:39 | 44.71639 | 0.60177 | 31682 ft | 482 kts | 327° |
| 2026-05-03 22:40 | 44.74620 | 0.58006 | 32088 ft | 481 kts | 327° |
| 2026-05-03 22:40 | 44.77586 | 0.55840 | 32497 ft | 480 kts | 327° |
| 2026-05-03 22:40 | 44.80548 | 0.53673 | 32880 ft | 479 kts | 327° |
| 2026-05-03 22:40 | 44.83505 | 0.51513 | 33279 ft | 478 kts | 327° |
| 2026-05-03 22:41 | 44.86455 | 0.49360 | 33682 ft | 477 kts | 327° |
| 2026-05-03 22:41 | 44.89399 | 0.47208 | 34075 ft | 476 kts | 327° |
| 2026-05-03 22:41 | 44.92336 | 0.45056 | 34427 ft | 475 kts | 326° |
| 2026-05-03 22:41 | 44.95263 | 0.42902 | 34798 ft | 474 kts | 326° |
| 2026-05-03 22:42 | 44.98147 | 0.40776 | 35169 ft | 472 kts | 326° |
| 2026-05-03 22:42 | 45.01059 | 0.38631 | 35547 ft | 471 kts | 326° |
| 2026-05-03 22:42 | 45.03961 | 0.36492 | 35883 ft | 471 kts | 326° |
| 2026-05-03 22:42 | 45.06865 | 0.34349 | 36185 ft | 471 kts | 326° |
| 2026-05-03 22:43 | 45.09767 | 0.32205 | 36511 ft | 470 kts | 326° |
| 2026-05-03 22:43 | 45.12663 | 0.30063 | 36841 ft | 469 kts | 327° |
| 2026-05-03 22:43 | 45.15556 | 0.27923 | 37170 ft | 468 kts | 327° |
| 2026-05-03 22:43 | 45.18449 | 0.25785 | 37498 ft | 468 kts | 327° |
| 2026-05-03 22:44 | 45.21331 | 0.23649 | 37830 ft | 467 kts | 327° |
| 2026-05-03 22:44 | 45.24216 | 0.21506 | 37971 ft | 467 kts | 327° |
| 2026-05-03 22:44 | 45.27097 | 0.19363 | 37986 ft | 466 kts | 327° |
| 2026-05-03 22:45 | 45.32837 | 0.15083 | 37978 ft | 464 kts | 326° |
| 2026-05-03 22:45 | 45.37879 | 0.09716 | 37979 ft | 451 kts | 308° |
| 2026-05-03 22:46 | 45.42273 | 0.03331 | 37982 ft | 451 kts | 308° |
| 2026-05-03 22:46 | 45.46682 | -0.03052 | 37989 ft | 452 kts | 309° |
| 2026-05-03 22:47 | 45.51099 | -0.09461 | 37976 ft | 453 kts | 309° |
| 2026-05-03 22:47 | 45.55507 | -0.15885 | 37974 ft | 453 kts | 309° |
| 2026-05-03 22:48 | 45.59896 | -0.22286 | 37993 ft | 454 kts | 308° |
| 2026-05-03 22:48 | 45.64192 | -0.28873 | 37988 ft | 448 kts | 300° |
| 2026-05-03 22:49 | 45.67082 | -0.36564 | 37985 ft | 434 kts | 283° |
| 2026-05-03 22:49 | 45.68818 | -0.44742 | 37982 ft | 432 kts | 281° |
| 2026-05-03 22:50 | 45.70559 | -0.52970 | 37976 ft | 432 kts | 281° |
| 2026-05-03 22:50 | 45.72306 | -0.61215 | 37977 ft | 432 kts | 281° |
| 2026-05-03 22:51 | 45.74036 | -0.69469 | 37981 ft | 432 kts | 281° |
| 2026-05-03 22:51 | 45.75750 | -0.77727 | 37982 ft | 432 kts | 281° |
| 2026-05-03 22:52 | 45.77455 | -0.85950 | 37978 ft | 434 kts | 281° |
| 2026-05-03 22:52 | 45.79174 | -0.94270 | 37961 ft | 435 kts | 281° |
| 2026-05-03 22:53 | 45.80893 | -1.02623 | 37960 ft | 436 kts | 281° |
| 2026-05-03 22:53 | 45.82598 | -1.10941 | 37962 ft | 437 kts | 281° |
| 2026-05-03 22:54 | 45.84318 | -1.19326 | 37994 ft | 438 kts | 281° |
| 2026-05-03 22:54 | 45.86023 | -1.27719 | 37986 ft | 438 kts | 281° |
| 2026-05-03 22:55 | 45.87713 | -1.36121 | 37984 ft | 438 kts | 281° |
| 2026-05-03 22:55 | 45.89393 | -1.44485 | 37983 ft | 439 kts | 281° |
| 2026-05-03 22:56 | 45.91082 | -1.52904 | 37983 ft | 439 kts | 281° |
| 2026-05-03 22:56 | 45.92772 | -1.61343 | 38013 ft | 439 kts | 281° |
| 2026-05-03 22:57 | 45.94451 | -1.69782 | 37998 ft | 439 kts | 281° |
| 2026-05-03 22:57 | 45.96127 | -1.78235 | 38010 ft | 439 kts | 281° |
| 2026-05-03 22:58 | 45.97787 | -1.86631 | 38001 ft | 439 kts | 281° |
| 2026-05-03 22:58 | 45.99455 | -1.95094 | 37999 ft | 439 kts | 281° |
| 2026-05-03 22:59 | 46.01112 | -2.03562 | 38004 ft | 439 kts | 281° |
| 2026-05-03 22:59 | 46.02764 | -2.12028 | 38008 ft | 440 kts | 281° |
| 2026-05-03 23:00 | 46.04411 | -2.20512 | 38001 ft | 440 kts | 281° |
| 2026-05-03 23:00 | 46.06038 | -2.28945 | 38001 ft | 440 kts | 281° |
| 2026-05-03 23:01 | 46.07670 | -2.37435 | 38004 ft | 440 kts | 281° |
| 2026-05-03 23:01 | 46.09295 | -2.45935 | 38011 ft | 440 kts | 281° |
| 2026-05-03 23:02 | 46.10921 | -2.54442 | 38008 ft | 441 kts | 281° |
| 2026-05-03 23:02 | 46.12540 | -2.62963 | 38006 ft | 441 kts | 280° |
| 2026-05-03 23:03 | 46.14149 | -2.71491 | 38023 ft | 441 kts | 281° |
| 2026-05-03 23:03 | 46.15760 | -2.80041 | 38026 ft | 442 kts | 281° |
| 2026-05-03 23:04 | 46.17092 | -2.87158 | 38020 ft | 442 kts | 281° |
| 2026-05-03 23:04 | 46.18685 | -2.95724 | 38013 ft | 442 kts | 281° |
| 2026-05-03 23:05 | 46.20543 | -3.05704 | 38013 ft | 442 kts | 281° |
| 2026-05-03 23:05 | 46.21866 | -3.12846 | 38010 ft | 443 kts | 281° |
| 2026-05-03 23:06 | 46.23456 | -3.21454 | 38025 ft | 443 kts | 281° |